Time;durP1;ratioP1;P1;durP2;ratioP2;P2;SDS_P1;SDS_P2;PMS_P1;PMS_P2;Temp;Humidity;BMP_temperature;BMP_pressure;BME280_temperature;BME280_humidity;BME280_pressure;Samples;Min_cycle;Max_cycle;Signal;HPM_P1;HPM_P2
2024/02/19 00:04:16;;;;;;;1999.90;999.90;;;;;;;8.95;100.00;102516.16;10214678;29;20047;-68
2024/02/19 00:09:19;;;;;;;1999.90;999.90;;;;;;;9.02;100.00;102522.94;10213884;29;20488;-68
2024/02/19 00:14:21;;;;;;;1999.90;999.90;;;;;;;9.08;100.00;102527.19;10221537;29;20048;-68
2024/02/19 00:19:24;;;;;;;1999.90;999.90;;;;;;;8.83;100.00;102516.44;10220583;29;20060;-68
2024/02/19 00:24:26;;;;;;;1999.90;999.90;;;;;;;9.05;100.00;102528.13;10220960;29;20047;-68
2024/02/19 00:29:29;;;;;;;1999.90;999.90;;;;;;;8.87;100.00;102531.16;10221306;29;20078;-68
2024/02/19 00:34:31;;;;;;;1999.90;999.90;;;;;;;8.81;100.00;102547.81;10220602;29;20048;-68
2024/02/19 00:39:33;;;;;;;1999.90;999.90;;;;;;;8.91;100.00;102543.25;10221231;29;20070;-68
2024/02/19 00:44:36;;;;;;;1999.90;999.90;;;;;;;8.66;100.00;102535.97;10221297;29;20094;-68
2024/02/19 00:49:38;;;;;;;1999.90;999.90;;;;;;;8.71;100.00;102543.69;10203644;29;20513;-68
2024/02/19 00:54:44;;;;;;;1999.90;999.90;;;;;;;8.79;100.00;102538.28;10220957;29;20070;-68
2024/02/19 00:59:47;;;;;;;1999.90;999.90;;;;;;;8.67;100.00;102542.03;10219736;29;20051;-68
2024/02/19 01:04:53;;;;;;;1999.90;999.90;;;;;;;8.61;100.00;102544.75;10219910;29;20530;-68
2024/02/19 01:09:55;;;;;;;1999.90;999.90;;;;;;;8.74;100.00;102564.50;10219358;29;20052;-68
2024/02/19 01:14:58;;;;;;;1999.90;999.90;;;;;;;8.73;100.00;102563.66;10219095;29;20053;-68
2024/02/19 01:20:00;;;;;;;1999.90;999.90;;;;;;;8.76;100.00;102562.75;10219424;29;20403;-68
2024/02/19 01:25:03;;;;;;;1999.90;999.90;;;;;;;8.70;100.00;102552.41;10218386;29;20079;-68
2024/02/19 01:30:06;;;;;;;1999.90;999.90;;;;;;;8.91;100.00;102559.78;10219672;29;20059;-68
2024/02/19 01:35:08;;;;;;;1999.90;999.90;;;;;;;8.87;100.00;102544.22;10218889;29;20062;-68
2024/02/19 01:40:12;;;;;;;1999.90;999.90;;;;;;;8.79;100.00;102560.03;10218908;29;20052;-68
2024/02/19 01:45:26;;;;;;;1999.90;999.90;;;;;;;8.67;100.00;102552.47;10219182;29;20135;-68
2024/02/19 01:50:31;;;;;;;1999.90;999.90;;;;;;;8.71;100.00;102556.75;10218874;29;20051;-68
2024/02/19 01:55:36;;;;;;;1999.90;999.90;;;;;;;8.68;100.00;102564.66;10217595;29;20048;-68
2024/02/19 02:00:39;;;;;;;1999.90;999.90;;;;;;;8.84;100.00;102567.78;10217509;29;20047;-68
2024/02/19 02:05:41;;;;;;;1999.90;999.90;;;;;;;8.83;100.00;102569.53;10218394;29;20048;-68
2024/02/19 02:10:44;;;;;;;1999.90;999.90;;;;;;;8.79;100.00;102572.25;10218198;29;20107;-68
2024/02/19 02:15:46;;;;;;;1999.90;999.90;;;;;;;8.66;100.00;102571.66;10218195;29;20047;-68
2024/02/19 02:20:49;;;;;;;1999.90;999.90;;;;;;;8.61;100.00;102582.19;10217186;29;20122;-68
2024/02/19 02:25:53;;;;;;;1999.90;999.90;;;;;;;8.67;100.00;102575.97;10216922;29;20555;-68
2024/02/19 02:30:55;;;;;;;1999.90;999.90;;;;;;;8.64;100.00;102548.19;10217428;29;20134;-68
2024/02/19 02:35:57;;;;;;;1999.90;999.90;;;;;;;8.62;100.00;102551.72;10215977;29;20151;-68
2024/02/19 02:41:00;;;;;;;1999.90;999.90;;;;;;;8.38;100.00;102554.75;10216456;29;20055;-68
2024/02/19 02:46:02;;;;;;;1999.90;999.90;;;;;;;8.51;100.00;102563.25;10216792;29;20051;-68
2024/02/19 02:51:05;;;;;;;1999.90;999.90;;;;;;;8.69;100.00;102561.13;10216641;29;20063;-68
2024/02/19 02:56:16;;;;;;;1999.90;999.90;;;;;;;8.64;100.00;102570.81;10215839;29;20055;-68
2024/02/19 03:01:28;;;;;;;1999.90;999.90;;;;;;;8.61;100.00;102576.09;10216328;29;20399;-68
2024/02/19 03:06:31;;;;;;;1999.90;999.90;;;;;;;8.55;100.00;102580.56;10214300;29;20484;-68
2024/02/19 03:11:33;;;;;;;1999.90;999.90;;;;;;;8.51;100.00;102572.84;10215936;29;20079;-68
2024/02/19 03:16:35;;;;;;;1999.90;999.90;;;;;;;8.65;100.00;102573.38;10215761;29;20051;-68
2024/02/19 03:21:38;;;;;;;1999.90;999.90;;;;;;;8.62;100.00;102583.91;10213809;29;20052;-68
2024/02/19 03:26:41;;;;;;;1999.90;999.90;;;;;;;8.59;100.00;102585.72;10215411;29;20051;-68
2024/02/19 03:31:44;;;;;;;1999.90;999.90;;;;;;;8.50;100.00;102589.38;10215393;29;20047;-68
2024/02/19 03:36:50;;;;;;;1999.90;999.90;;;;;;;8.72;100.00;102584.56;10214511;29;20051;-68
2024/02/19 03:41:53;;;;;;;1999.90;999.90;;;;;;;8.65;100.00;102591.66;10213303;29;20062;-68
2024/02/19 03:46:56;;;;;;;1999.90;999.90;;;;;;;8.69;100.00;102584.63;10213044;29;20434;-68
2024/02/19 03:52:02;;;;;;;1999.90;999.90;;;;;;;8.67;100.00;102584.66;10214912;29;20051;-68
2024/02/19 03:57:04;;;;;;;1999.90;999.90;;;;;;;8.60;100.00;102579.63;10214728;29;20052;-68
2024/02/19 04:02:07;;;;;;;1999.90;999.90;;;;;;;8.60;100.00;102587.44;10214156;29;20415;-68
2024/02/19 04:07:09;;;;;;;1999.90;999.90;;;;;;;8.63;100.00;102593.47;10214445;29;20054;-68
2024/02/19 04:12:12;;;;;;;1999.90;999.90;;;;;;;8.64;100.00;102589.97;10214445;29;20052;-68
2024/02/19 04:17:14;;;;;;;1999.90;999.90;;;;;;;8.53;100.00;102590.16;10214409;29;20054;-68
2024/02/19 04:22:16;;;;;;;1999.90;999.90;;;;;;;8.63;100.00;102592.59;10212441;29;20472;-68
2024/02/19 04:27:19;;;;;;;1999.90;999.90;;;;;;;8.48;100.00;102589.41;10214073;29;20134;-68
2024/02/19 04:32:21;;;;;;;1999.90;999.90;;;;;;;8.72;100.00;102584.56;10213493;29;20048;-68
2024/02/19 04:37:24;;;;;;;1999.90;999.90;;;;;;;8.70;100.00;102595.03;10213946;29;20048;-68
2024/02/19 04:42:26;;;;;;;1999.90;999.90;;;;;;;8.65;100.00;102589.06;10211891;29;20500;-68
2024/02/19 04:47:29;;;;;;;1999.90;999.90;;;;;;;8.60;100.00;102592.66;10213275;29;20403;-68
2024/02/19 04:52:31;;;;;;;1999.90;999.90;;;;;;;8.63;100.00;102600.44;10227571;23;20127;-68
2024/02/19 04:57:34;;;;;;;1999.90;999.90;;;;;;;8.58;100.00;102595.31;10216061;29;20050;-68
2024/02/19 05:02:36;;;;;;;1999.90;999.90;;;;;;;8.73;100.00;102588.91;10219681;29;20066;-68
2024/02/19 05:07:38;;;;;;;1999.90;999.90;;;;;;;8.70;100.00;102583.75;10219974;29;20040;-68
2024/02/19 05:12:41;;;;;;;1999.90;999.90;;;;;;;8.58;100.00;102576.19;10220457;29;20063;-68
2024/02/19 05:17:43;;;;;;;1999.90;999.90;;;;;;;8.56;100.00;102576.22;10220296;29;20055;-70
2024/02/19 05:22:48;;;;;;;1999.90;999.90;;;;;;;8.58;100.00;102581.41;10219480;29;20392;-70
2024/02/19 05:27:52;;;;;;;1999.90;999.90;;;;;;;8.51;100.00;102578.91;10219832;29;20059;-70
2024/02/19 05:32:55;;;;;;;1999.90;999.90;;;;;;;8.77;100.00;102580.09;10219689;29;20064;-68
2024/02/19 05:37:57;;;;;;;1999.90;999.90;;;;;;;8.84;100.00;102581.72;10219054;29;20399;-68
2024/02/19 05:42:59;;;;;;;1999.90;999.90;;;;;;;9.04;100.00;102586.47;10217547;29;20487;-68
2024/02/19 05:48:02;;;;;;;1999.90;999.90;;;;;;;9.02;100.00;102590.88;10219017;29;20044;-68
2024/02/19 05:53:04;;;;;;;1999.90;999.90;;;;;;;9.23;100.00;102584.31;10218575;29;20094;-68
2024/02/19 05:58:07;;;;;;;1999.90;999.90;;;;;;;9.16;100.00;102577.50;10216921;29;20384;-68
2024/02/19 06:03:09;;;;;;;1999.90;999.90;;;;;;;9.15;100.00;102575.78;10217824;29;20059;-68
2024/02/19 06:08:12;;;;;;;1999.90;999.90;;;;;;;8.68;100.00;102581.16;10217373;29;20057;-68
2024/02/19 06:13:14;;;;;;;1999.90;999.90;;;;;;;8.60;100.00;102577.84;10216359;29;20469;-68
2024/02/19 06:18:17;;;;;;;1999.90;999.90;;;;;;;8.70;100.00;102576.75;10216776;29;20130;-69
2024/02/19 06:23:19;;;;;;;1999.90;999.90;;;;;;;8.67;100.00;102578.59;10216495;29;20139;-69
2024/02/19 06:28:22;;;;;;;1999.90;999.90;;;;;;;8.76;100.00;102573.19;10216978;29;20053;-69
2024/02/19 06:33:24;;;;;;;1999.90;999.90;;;;;;;8.68;100.00;102578.56;10216700;29;20059;-69
2024/02/19 06:38:26;;;;;;;1999.90;999.90;;;;;;;8.62;100.00;102581.28;10216550;29;20054;-69
2024/02/19 06:43:29;;;;;;;1999.90;999.90;;;;;;;8.57;100.00;102587.50;10216281;29;20145;-69
2024/02/19 06:48:31;;;;;;;1999.90;999.90;;;;;;;8.64;100.00;102586.47;10216245;29;20391;-69
2024/02/19 06:53:34;;;;;;;1999.90;999.90;;;;;;;8.58;100.00;102590.09;10198912;29;20562;-69
2024/02/19 06:58:36;;;;;;;1999.90;999.90;;;;;;;8.79;100.00;102575.69;10216426;29;20047;-69
2024/02/19 07:03:39;;;;;;;1999.90;999.90;;;;;;;8.76;100.00;102580.13;10216272;29;20047;-69
2024/02/19 07:08:41;;;;;;;1999.90;999.90;;;;;;;8.72;100.00;102589.78;10215518;29;20510;-69
2024/02/19 07:13:44;;;;;;;1999.90;999.90;;;;;;;8.71;100.00;102583.72;10215336;29;20523;-69
2024/02/19 07:18:47;;;;;;;1999.90;999.90;;;;;;;8.81;100.00;102579.16;10215717;29;20052;-69
2024/02/19 07:23:50;;;;;;;1999.90;999.90;;;;;;;8.86;100.00;102572.09;10213548;29;20048;-69
2024/02/19 07:28:52;;;;;;;1999.90;999.90;;;;;;;8.86;100.00;102568.59;10214428;29;20055;-69
2024/02/19 07:33:55;;;;;;;1999.90;999.90;;;;;;;8.92;100.00;102581.53;10215275;29;20052;-69
2024/02/19 07:38:58;;;;;;;1999.90;999.90;;;;;;;8.91;100.00;102575.47;10213972;29;20106;-69
2024/02/19 07:44:00;;;;;;;1999.90;999.90;;;;;;;9.06;100.00;102570.75;10214952;29;20131;-68
2024/02/19 07:49:02;;;;;;;1999.90;999.90;;;;;;;8.97;100.00;102565.75;10214913;29;20051;-69
2024/02/19 07:54:05;;;;;;;1999.90;999.90;;;;;;;9.08;100.00;102575.06;10214430;29;20066;-69
2024/02/19 07:59:07;;;;;;;1999.90;999.90;;;;;;;9.21;100.00;102580.91;10214582;29;20055;-69
2024/02/19 08:04:10;;;;;;;1999.90;999.90;;;;;;;9.19;100.00;102576.59;10212735;29;20047;-70
2024/02/19 08:09:12;;;;;;;1999.90;999.90;;;;;;;9.11;100.00;102572.41;10214540;29;20130;-69
2024/02/19 08:14:15;;;;;;;1999.90;999.90;;;;;;;9.42;100.00;102573.44;10212651;29;20051;-69
2024/02/19 08:19:18;;;;;;;1999.90;999.90;;;;;;;9.54;100.00;102567.03;10214363;29;20063;-69
2024/02/19 08:24:20;;;;;;;1999.90;999.90;;;;;;;9.44;100.00;102561.19;10214225;29;20043;-69
2024/02/19 08:29:22;;;;;;;1999.90;999.90;;;;;;;9.43;100.00;102568.16;10214216;29;20047;-69
2024/02/19 08:34:25;;;;;;;1999.90;999.90;;;;;;;9.74;100.00;102559.53;10219434;29;20130;-69
2024/02/19 08:39:28;;;;;;;1999.90;999.90;;;;;;;9.85;100.00;102573.22;10221795;29;20130;-69
2024/02/19 08:44:30;;;;;;;1999.90;999.90;;;;;;;9.84;100.00;102565.41;10204107;29;20388;-69
2024/02/19 08:49:32;;;;;;;1999.90;999.90;;;;;;;10.14;100.00;102575.97;10221346;29;20130;-69
2024/02/19 08:54:37;;;;;;;1999.90;999.90;;;;;;;10.60;100.00;102572.91;10220727;29;20107;-69
2024/02/19 08:59:44;;;;;;;1999.90;999.90;;;;;;;10.32;100.00;102572.88;10220372;29;20478;-69
2024/02/19 09:04:47;;;;;;;1999.90;999.90;;;;;;;10.90;100.00;102569.44;10220763;29;20051;-70
2024/02/19 09:09:50;;;;;;;1999.90;999.90;;;;;;;10.53;100.00;102578.41;10220046;29;20048;-70
2024/02/19 09:14:55;;;;;;;1999.90;999.90;;;;;;;10.75;100.00;102576.00;10218643;29;20134;-70
2024/02/19 09:19:57;;;;;;;1999.90;999.90;;;;;;;10.74;100.00;102583.00;10218258;29;20048;-69
2024/02/19 09:25:00;;;;;;;1999.90;999.90;;;;;;;10.41;100.00;102577.84;10219998;29;20126;-69
2024/02/19 09:30:03;;;;;;;1999.90;999.90;;;;;;;11.11;100.00;102568.78;10218727;29;20056;-69
2024/02/19 09:35:06;;;;;;;1999.90;999.90;;;;;;;10.75;100.00;102568.16;10218512;29;20054;-69
2024/02/19 09:40:12;;;;;;;1999.90;999.90;;;;;;;10.75;100.00;102573.38;10218801;29;20051;-69
2024/02/19 09:45:15;;;;;;;1999.90;999.90;;;;;;;10.68;100.00;102564.84;10217932;29;20079;-69
2024/02/19 09:50:17;;;;;;;1999.90;999.90;;;;;;;11.02;100.00;102576.06;10217962;29;20055;-69
2024/02/19 09:55:20;;;;;;;1999.90;999.90;;;;;;;10.94;100.00;102571.06;10217172;29;20143;-69
2024/02/19 10:00:23;;;;;;;1999.90;999.90;;;;;;;10.89;100.00;102565.97;10218744;29;20062;-69
2024/02/19 10:05:25;;;;;;;1999.90;999.90;;;;;;;10.76;100.00;102580.34;10216698;29;20467;-70
2024/02/19 10:10:28;;;;;;;1999.90;999.90;;;;;;;11.10;100.00;102568.84;10218359;29;20060;-69
2024/02/19 10:15:31;;;;;;;1999.90;999.90;;;;;;;11.26;100.00;102567.44;10217548;29;20444;-69
2024/02/19 10:20:43;;;;;;;1999.90;999.90;;;;;;;10.92;100.00;102583.34;10217357;29;20503;-69
2024/02/19 10:25:46;;;;;;;1999.90;999.90;;;;;;;10.99;100.00;102558.66;10217101;29;20526;-69
2024/02/19 10:30:49;;;;;;;1999.90;999.90;;;;;;;11.05;100.00;102568.13;10200745;29;20051;-69
2024/02/19 10:35:51;;;;;;;1999.90;999.90;;;;;;;10.90;100.00;102567.69;10216216;29;20054;-69
2024/02/19 10:40:54;;;;;;;1999.90;999.90;;;;;;;11.23;100.00;102571.91;10216039;29;20058;-70
2024/02/19 10:45:57;;;;;;;1999.90;999.90;;;;;;;10.83;100.00;102570.53;10215788;29;20043;-69
2024/02/19 10:51:07;;;;;;;1999.90;999.90;;;;;;;10.86;100.00;102563.44;10215628;29;20115;-69
2024/02/19 10:56:19;;;;;;;1999.90;999.90;;;;;;;10.96;100.00;102556.13;10214197;29;20496;-69
2024/02/19 11:01:40;;;;;;;1999.90;999.90;;;;;;;11.21;100.00;102534.41;10216379;29;20048;-70
2024/02/19 11:06:54;;;;;;;1999.90;999.90;;;;;;;11.04;100.00;102529.69;10215789;29;20488;-70
2024/02/19 11:12:02;;;;;;;1999.90;999.90;;;;;;;11.19;100.00;102525.72;10214323;29;20550;-70
2024/02/19 11:17:04;;;;;;;1999.90;999.90;;;;;;;11.37;100.00;102516.41;10214109;29;20480;-70
2024/02/19 11:22:09;;;;;;;1999.90;999.90;;;;;;;11.62;100.00;102503.31;10215772;29;20079;-70
2024/02/19 11:27:12;;;;;;;1999.90;999.90;;;;;;;11.57;100.00;102505.25;10214353;29;20051;-69
2024/02/19 11:32:19;;;;;;;1999.90;999.90;;;;;;;11.31;100.00;102497.34;10214268;29;20063;-69
2024/02/19 11:37:23;;;;;;;1999.90;999.90;;;;;;;11.37;100.00;102490.19;10214640;29;20487;-69
2024/02/19 11:42:26;;;;;;;1999.90;999.90;;;;;;;11.33;100.00;102482.44;10215134;29;20138;-69
2024/02/19 11:47:28;;;;;;;1999.90;999.90;;;;;;;11.86;100.00;102477.97;10214286;29;20476;-70
2024/02/19 11:52:31;;;;;;;1999.90;999.90;;;;;;;11.45;100.00;102481.16;10212919;29;20181;-69
2024/02/19 11:57:34;;;;;;;1999.90;999.90;;;;;;;11.19;100.00;102476.78;10213028;29;20052;-69
2024/02/19 12:02:48;;;;;;;1999.90;999.90;;;;;;;11.66;100.00;102468.19;10214083;29;20059;-69
2024/02/19 12:07:51;;;;;;;1999.90;999.90;;;;;;;11.56;100.00;102465.03;10215888;29;20389;-69
2024/02/19 12:12:55;;;;;;;1999.90;999.90;;;;;;;11.27;100.00;102468.66;10221616;29;20059;-69
2024/02/19 12:17:58;;;;;;;1999.90;999.90;;;;;;;11.45;100.00;102456.69;10221430;29;20106;-70
2024/02/19 12:23:00;;;;;;;1999.90;999.90;;;;;;;11.41;100.00;102448.06;10220626;29;20051;-69
2024/02/19 12:28:05;;;;;;;1999.90;999.90;;;;;;;10.97;100.00;102453.88;10220412;29;20407;-69
2024/02/19 12:33:08;;;;;;;1999.90;999.90;;;;;;;11.49;100.00;102453.88;10221380;29;20384;-69
2024/02/19 12:38:10;;;;;;;1999.90;999.90;;;;;;;11.18;100.00;102453.22;10205146;29;20048;-69
2024/02/19 12:43:13;;;;;;;1999.90;999.90;;;;;;;10.93;100.00;102449.66;10220049;29;20058;-68
2024/02/19 12:48:15;;;;;;;1999.90;999.90;;;;;;;11.10;100.00;102448.25;10221229;29;20051;-70
2024/02/19 12:53:18;;;;;;;1999.90;999.90;;;;;;;10.96;100.00;102428.59;10220835;29;20074;-69
2024/02/19 12:58:20;;;;;;;1999.90;999.90;;;;;;;11.11;100.00;102408.88;10221096;29;20056;-69
2024/02/19 13:03:24;;;;;;;1999.90;999.90;;;;;;;11.12;100.00;102409.72;10220251;29;20467;-69
2024/02/19 13:08:26;;;;;;;1999.90;999.90;;;;;;;11.25;100.00;102418.03;10219976;29;20056;-69
2024/02/19 13:13:28;;;;;;;1999.90;999.90;;;;;;;11.27;100.00;102410.97;10219348;29;20052;-70
2024/02/19 13:18:31;;;;;;;1999.90;999.90;;;;;;;10.99;100.00;102411.91;10219219;29;20554;-70
2024/02/19 13:23:34;;;;;;;1999.90;999.90;;;;;;;10.87;100.00;102405.31;10219490;29;20514;-70
2024/02/19 13:28:36;;;;;;;1999.90;999.90;;;;;;;10.78;100.00;102409.09;10219849;29;20130;-70
2024/02/19 13:33:39;;;;;;;1999.90;999.90;;;;;;;10.90;100.00;102397.34;10219773;29;20052;-70
2024/02/19 13:38:43;;;;;;;1999.90;999.90;;;;;;;10.94;100.00;102383.25;10218985;29;20483;-69
2024/02/19 13:43:45;;;;;;;1999.90;999.90;;;;;;;10.83;100.00;102377.50;10219377;29;20079;-69
2024/02/19 13:49:06;;;;;;;1999.90;999.90;;;;;;;10.95;100.00;102382.31;10217985;29;20054;-69
2024/02/19 13:54:09;;;;;;;1999.90;999.90;;;;;;;11.26;100.00;102373.44;10218766;29;20067;-69
2024/02/19 13:59:13;;;;;;;1999.90;999.90;;;;;;;10.88;100.00;102385.22;10217027;29;20463;-69
2024/02/19 14:04:16;;;;;;;1999.90;999.90;;;;;;;11.02;100.00;102382.13;10218545;29;20052;-69
2024/02/19 14:09:18;;;;;;;1999.90;999.90;;;;;;;10.71;100.00;102393.63;10217234;29;20048;-69
2024/02/19 14:14:21;;;;;;;1999.90;999.90;;;;;;;10.40;100.00;102384.13;10218161;29;20058;-69
2024/02/19 14:19:24;;;;;;;1999.90;999.90;;;;;;;10.54;100.00;102387.16;10216961;29;20052;-69
2024/02/19 14:24:27;;;;;;;1999.90;999.90;;;;;;;10.46;100.00;102377.84;10217826;29;20055;-69
2024/02/19 14:29:30;;;;;;;1999.90;999.90;;;;;;;10.18;100.00;102366.41;10215069;29;20559;-69
2024/02/19 14:34:34;;;;;;;1999.90;999.90;;;;;;;10.35;100.00;102376.41;10217473;29;20111;-69
2024/02/19 14:39:38;;;;;;;1999.90;999.90;;;;;;;10.28;100.00;102367.00;10216148;29;20055;-69
2024/02/19 14:44:41;;;;;;;1999.90;999.90;;;;;;;10.18;100.00;102373.44;10216371;29;20062;-69
2024/02/19 14:49:44;;;;;;;1999.90;999.90;;;;;;;10.33;100.00;102378.22;10216873;29;20051;-69
2024/02/19 14:54:46;;;;;;;1999.90;999.90;;;;;;;10.13;100.00;102386.63;10215172;29;20084;-69
2024/02/19 14:59:50;;;;;;;1999.90;999.90;;;;;;;10.07;100.00;102378.13;10199738;29;20052;-69
2024/02/19 15:04:53;;;;;;;1999.90;999.90;;;;;;;10.18;100.00;102389.97;10215787;29;20118;-69
2024/02/19 15:09:56;;;;;;;1999.90;999.90;;;;;;;10.06;100.00;102387.75;10214979;29;20135;-69
2024/02/19 15:14:58;;;;;;;1999.90;999.90;;;;;;;9.94;100.00;102383.72;10215963;29;20047;-69
2024/02/19 15:20:01;;;;;;;1999.90;999.90;;;;;;;9.92;100.00;102380.31;10214742;29;20119;-70
2024/02/19 15:25:06;;;;;;;1999.90;999.90;;;;;;;9.86;100.00;102385.69;10214373;29;20055;-69
2024/02/19 15:30:08;;;;;;;1999.90;999.90;;;;;;;10.09;100.00;102382.41;10214212;29;20048;-69
2024/02/19 15:35:11;;;;;;;1999.90;999.90;;;;;;;9.94;100.00;102378.50;10214729;29;20106;-70
2024/02/19 15:40:14;;;;;;;1999.90;999.90;;;;;;;9.86;100.00;102380.47;10215067;29;20048;-71
2024/02/19 15:45:17;;;;;;;1999.90;999.90;;;;;;;10.02;100.00;102373.91;10213869;29;20051;-69
2024/02/19 15:50:19;;;;;;;1999.90;999.90;;;;;;;9.85;100.00;102369.16;10214952;29;20059;-69
2024/02/19 15:55:22;;;;;;;1999.90;999.90;;;;;;;9.71;100.00;102379.16;10214382;29;20130;-69
2024/02/19 16:00:24;;;;;;;1999.90;999.90;;;;;;;10.13;100.00;102373.56;10214142;29;20495;-69
2024/02/19 16:05:27;;;;;;;1999.90;999.90;;;;;;;9.78;100.00;102371.97;10214659;29;20048;-69
2024/02/19 16:10:30;;;;;;;1999.90;999.90;;;;;;;9.58;100.00;102381.28;10212616;29;20058;-69
2024/02/19 16:15:34;;;;;;;1999.90;999.90;;;;;;;9.79;100.00;102369.31;10213818;29;20039;-70
2024/02/19 16:20:36;;;;;;;1999.90;999.90;;;;;;;9.76;100.00;102372.03;10213792;29;20455;-69
2024/02/19 16:25:38;;;;;;;1999.90;999.90;;;;;;;9.73;100.00;102373.88;10197436;29;20065;-69
2024/02/19 16:30:41;;;;;;;1999.90;999.90;;;;;;;9.62;100.00;102367.19;10213610;29;20415;-69
2024/02/19 16:35:44;;;;;;;1999.90;999.90;;;;;;;9.39;100.00;102372.22;10212380;29;20044;-69
2024/02/19 16:40:52;;;;;;;1999.90;999.90;;;;;;;9.52;100.00;102376.22;10212304;29;20055;-69
2024/02/19 16:45:54;;;;;;;1999.90;999.90;;;;;;;9.59;100.00;102377.75;10213280;29;20475;-70
2024/02/19 16:50:57;;;;;;;1999.90;999.90;;;;;;;9.32;100.00;102381.13;10212062;29;20051;-69
2024/02/19 16:55:59;;;;;;;1999.90;999.90;;;;;;;9.33;100.00;102388.06;10218978;29;20055;-69
2024/02/19 17:01:04;;;;;;;1999.90;999.90;;;;;;;9.36;100.00;102390.59;10219876;29;20051;-69
2024/02/19 17:06:07;;;;;;;1999.90;999.90;;;;;;;9.38;100.00;102399.25;10219070;29;20499;-69
2024/02/19 17:11:10;;;;;;;1999.90;999.90;;;;;;;9.51;100.00;102402.38;10232508;23;20071;-72
2024/02/19 17:16:13;;;;;;;1999.90;999.90;;;;;;;9.32;100.00;102409.88;10219406;29;20071;-70
2024/02/19 17:21:15;;;;;;;1999.90;999.90;;;;;;;9.46;100.00;102419.06;10220385;29;20055;-70
2024/02/19 17:26:17;;;;;;;1999.90;999.90;;;;;;;9.31;100.00;102409.00;10218304;29;20578;-70
2024/02/19 17:31:24;;;;;;;1999.90;999.90;;;;;;;9.35;100.00;102418.50;10218154;29;20407;-70
2024/02/19 17:36:27;;;;;;;1999.90;999.90;;;;;;;9.49;100.00;102420.72;10219832;29;20079;-70
2024/02/19 17:41:31;;;;;;;1999.90;999.90;;;;;;;9.27;100.00;102423.06;10217830;29;20485;-70
2024/02/19 17:46:34;;;;;;;1999.90;999.90;;;;;;;9.38;100.00;102431.50;10218663;29;20406;-70
2024/02/19 17:51:40;;;;;;;1999.90;999.90;;;;;;;9.45;100.00;102434.81;10217449;29;20389;-70
2024/02/19 17:56:42;;;;;;;1999.90;999.90;;;;;;;9.18;100.00;102437.22;10217819;29;20054;-70
2024/02/19 18:01:46;;;;;;;1999.90;999.90;;;;;;;9.30;100.00;102438.66;10218204;29;20051;-70
2024/02/19 18:06:49;;;;;;;1999.90;999.90;;;;;;;9.24;100.00;102446.66;10218531;29;20044;-70
2024/02/19 18:11:52;;;;;;;1999.90;999.90;;;;;;;9.21;100.00;102451.94;10217726;29;20110;-70
2024/02/19 18:16:55;;;;;;;1999.90;999.90;;;;;;;9.05;100.00;102472.41;10218292;29;20043;-68
2024/02/19 18:22:00;;;;;;;1999.90;999.90;;;;;;;9.05;100.00;102470.63;10218111;29;20062;-71
2024/02/19 18:27:02;;;;;;;1999.90;999.90;;;;;;;8.84;100.00;102477.25;10216025;29;20403;-71
2024/02/19 18:32:05;;;;;;;1999.90;999.90;;;;;;;9.05;100.00;102490.69;10216970;29;20555;-68
2024/02/19 18:37:08;;;;;;;1999.90;999.90;;;;;;;8.95;100.00;102490.03;10217444;29;20074;-68
2024/02/19 18:42:11;;;;;;;1999.90;999.90;;;;;;;8.97;100.00;102490.00;10215546;29;20497;-68
2024/02/19 18:47:14;;;;;;;1999.90;999.90;;;;;;;8.77;100.00;102498.28;10216399;29;20111;-71
2024/02/19 18:52:17;;;;;;;1999.90;999.90;;;;;;;8.81;100.00;102497.31;10216207;29;20510;-68
2024/02/19 18:57:19;;;;;;;1999.90;999.90;;;;;;;8.88;100.00;102507.59;10215590;29;20087;-68
2024/02/19 19:02:22;;;;;;;1999.90;999.90;;;;;;;8.89;100.00;102498.00;10214690;29;20138;-68
2024/02/19 19:07:24;;;;;;;1999.90;999.90;;;;;;;8.86;100.00;102505.91;10214923;29;20127;-68
2024/02/19 19:12:26;;;;;;;1999.90;999.90;;;;;;;8.65;100.00;102509.88;10215598;29;20426;-68
2024/02/19 19:17:29;;;;;;;1999.90;999.90;;;;;;;8.68;100.00;102515.88;10215609;29;20126;-68
2024/02/19 19:22:31;;;;;;;1999.90;999.90;;;;;;;8.82;100.00;102518.19;10199125;29;20052;-68
2024/02/19 19:27:34;;;;;;;1999.90;999.90;;;;;;;8.48;100.00;102518.91;10214405;29;20048;-69
2024/02/19 19:32:36;;;;;;;1999.90;999.90;;;;;;;8.48;100.00;102536.34;10214324;29;20071;-69
2024/02/19 19:37:39;;;;;;;1999.90;999.90;;;;;;;8.57;100.00;102540.50;10214717;29;20051;-69
2024/02/19 19:42:45;;;;;;;1999.90;999.90;;;;;;;8.27;100.00;102538.47;10214064;29;20052;-71
2024/02/19 19:47:48;;;;;;;1999.90;999.90;;;;;;;8.27;100.00;102542.81;10213354;29;20479;-69
2024/02/19 19:52:51;;;;;;;1999.90;999.90;;;;;;;8.32;100.00;102541.84;10214980;29;20056;-68
2024/02/19 19:57:58;;;;;;;1999.90;999.90;;;;;;;8.43;100.00;102546.03;10213743;29;20127;-69
2024/02/19 20:03:02;;;;;;;1999.90;999.90;;;;;;;8.34;100.00;102554.88;10214804;29;20063;-71
2024/02/19 20:08:05;;;;;;;1999.90;999.90;;;;;;;8.39;100.00;102542.59;10212666;29;20056;-71
2024/02/19 20:13:08;;;;;;;1999.90;999.90;;;;;;;8.08;100.00;102544.94;10214050;29;20051;-71
2024/02/19 20:18:12;;;;;;;1999.90;999.90;;;;;;;8.14;100.00;102544.81;10213394;29;20055;-71
2024/02/19 20:23:15;;;;;;;1999.90;999.90;;;;;;;7.93;100.00;102543.47;10213319;29;20114;-71
2024/02/19 20:28:18;;;;;;;1999.90;999.90;;;;;;;7.98;100.00;102539.03;10214581;29;20514;-71
2024/02/19 20:33:20;;;;;;;1999.90;999.90;;;;;;;7.88;100.00;102553.97;10222163;29;20099;-69
2024/02/19 20:38:23;;;;;;;1999.90;999.90;;;;;;;7.87;100.00;102557.47;10220187;29;20415;-71
2024/02/19 20:43:26;;;;;;;1999.90;999.90;;;;;;;7.85;100.00;102566.22;10220661;29;20131;-69
2024/02/19 20:48:28;;;;;;;1999.90;999.90;;;;;;;7.80;100.00;102585.41;10220384;29;20063;-69
2024/02/19 20:53:31;;;;;;;1999.90;999.90;;;;;;;7.82;100.00;102594.06;10220801;29;20492;-68
2024/02/19 20:58:33;;;;;;;1999.90;999.90;;;;;;;7.92;100.00;102592.16;10221220;29;20127;-68
2024/02/19 21:03:36;;;;;;;1999.90;999.90;;;;;;;7.87;100.00;102596.59;10221027;29;20051;-68
2024/02/19 21:08:47;;;;;;;1999.90;999.90;;;;;;;7.80;100.00;102594.97;10220427;29;20131;-68
2024/02/19 21:13:49;;;;;;;1999.90;999.90;;;;;;;7.98;100.00;102596.41;10218850;29;20478;-68
2024/02/19 21:18:52;;;;;;;1999.90;999.90;;;;;;;7.94;100.00;102587.78;10203594;29;20127;-68
2024/02/19 21:23:54;;;;;;;1999.90;999.90;;;;;;;7.75;100.00;102594.19;10220329;29;20138;-68
2024/02/19 21:28:57;;;;;;;1999.90;999.90;;;;;;;8.04;100.00;102585.88;10234125;29;20496;-68
2024/02/19 21:34:00;;;;;;;1999.90;999.90;;;;;;;7.73;100.00;102591.63;10219007;29;20051;-68
2024/02/19 21:39:05;;;;;;;1999.90;999.90;;;;;;;7.65;100.00;102596.09;10219366;29;20043;-68
2024/02/19 21:44:07;;;;;;;1999.90;999.90;;;;;;;7.75;100.00;102594.19;10218920;29;20513;-68
2024/02/19 21:49:10;;;;;;;1999.90;999.90;;;;;;;7.41;100.00;102605.16;10219270;29;20135;-68
2024/02/19 21:54:12;;;;;;;1999.90;999.90;;;;;;;7.41;100.00;102623.41;10218018;29;20051;-68